createdAt,value
2023-02-24T00:01:52.844Z,100691.88
2023-02-24T00:04:21.295Z,100686.19
2023-02-24T00:06:48.627Z,100685.72
2023-02-24T00:09:21.550Z,100681.34
2023-02-24T00:12:02.565Z,100675.69
2023-02-24T00:14:32.070Z,100683.50
2023-02-24T00:16:59.037Z,100685.81
2023-02-24T00:19:32.675Z,100677.31
2023-02-24T00:22:04.451Z,100679.22
2023-02-24T00:24:31.701Z,100672.91
2023-02-24T00:27:01.011Z,100665.72
2023-02-24T00:29:29.956Z,100665.06
2023-02-24T00:32:02.380Z,100659.97
2023-02-24T00:34:36.525Z,100664.88
2023-02-24T00:37:07.029Z,100661.50
2023-02-24T00:39:34.834Z,100658.50
2023-02-24T00:42:06.862Z,100651.88
2023-02-24T00:44:41.192Z,100640.09
2023-02-24T00:47:10.512Z,100639.75
2023-02-24T00:49:44.575Z,100633.59
2023-02-24T00:52:16.058Z,100628.16
2023-02-24T00:54:44.784Z,100623.22
2023-02-24T00:57:12.225Z,100632.13
2023-02-24T00:59:39.463Z,100628.31
2023-02-24T01:02:11.422Z,100612.16
2023-02-24T01:04:38.761Z,100609.97
2023-02-24T01:07:10.806Z,100608.28
2023-02-24T01:09:40.347Z,100603.09
2023-02-24T01:12:29.234Z,100602.41
2023-02-24T01:14:55.996Z,100598.88
2023-02-24T01:17:22.693Z,100585.06
2023-02-24T01:19:50.298Z,100577.19
2023-02-24T01:22:19.535Z,100577.28
2023-02-24T01:24:47.555Z,100568.97
2023-02-24T01:27:18.569Z,100563.00
2023-02-24T01:29:48.993Z,100564.22
2023-02-24T01:32:20.014Z,100565.84
2023-02-24T01:34:48.064Z,100549.47
2023-02-24T01:37:16.529Z,100551.09
2023-02-24T01:39:47.043Z,100548.81
2023-02-24T01:42:17.142Z,100549.03
2023-02-24T01:44:43.858Z,100548.00
2023-02-24T01:47:12.174Z,100541.84
2023-02-24T01:49:45.207Z,100544.41
2023-02-24T01:52:11.791Z,100539.88
2023-02-24T01:54:43.113Z,100535.19
2023-02-24T01:57:13.396Z,100523.91
2023-02-24T01:59:40.141Z,100518.72
2023-02-24T02:02:08.659Z,100526.28
2023-02-24T02:04:48.018Z,100525.94
2023-02-24T02:07:18.416Z,100516.06
2023-02-24T02:09:47.828Z,100512.78
2023-02-24T02:12:14.537Z,100508.81
2023-02-24T02:14:52.285Z,100509.50
2023-02-24T02:17:45.826Z,100500.81
2023-02-24T02:20:42.376Z,100491.16
2023-02-24T02:23:23.943Z,100489.28
2023-02-24T02:26:18.911Z,100484.91
2023-02-24T02:28:48.345Z,100482.91
2023-02-24T02:31:25.994Z,100481.34
2023-02-24T02:34:34.326Z,100478.66
2023-02-24T02:37:24.612Z,100466.59
2023-02-24T02:40:00.633Z,100455.97
2023-02-24T02:42:33.621Z,100455.66
2023-02-24T02:45:27.806Z,100447.47
2023-02-24T02:47:59.485Z,100449.81
2023-02-24T02:50:36.537Z,100451.81
2023-02-24T02:53:37.508Z,100443.06
2023-02-24T02:56:15.672Z,100438.94
2023-02-24T02:58:47.866Z,100439.00
2023-02-24T03:01:20.930Z,100430.38
2023-02-24T03:03:52.542Z,100419.91
2023-02-24T03:06:22.935Z,100420.22
2023-02-24T03:08:56.235Z,100411.16
2023-02-24T03:11:24.204Z,100418.56
2023-02-24T03:13:55.991Z,100407.81
2023-02-24T03:16:26.598Z,100405.28
2023-02-24T03:19:03.759Z,100401.75
2023-02-24T03:21:40.925Z,100407.75
2023-02-24T03:24:08.693Z,100393.69
2023-02-24T03:26:41.992Z,100387.28
2023-02-24T03:29:24.041Z,100385.97
2023-02-24T03:32:05.101Z,100386.28
2023-02-24T03:34:50.631Z,100377.50
2023-02-24T03:37:25.564Z,100367.88
2023-02-24T03:39:59.024Z,100371.50
2023-02-24T03:42:32.759Z,100362.28
2023-02-24T03:45:01.605Z,100358.47
2023-02-24T03:47:28.389Z,100354.44
2023-02-24T03:49:55.165Z,100344.59
2023-02-24T03:52:48.971Z,100338.34
2023-02-24T03:55:25.399Z,100331.41
2023-02-24T03:58:12.788Z,100328.69
2023-02-24T04:00:44.802Z,100315.78
2023-02-24T04:03:34.864Z,100312.97
2023-02-24T04:07:06.366Z,100307.28
2023-02-24T04:09:45.314Z,100299.19
2023-02-24T04:12:26.653Z,100300.84
2023-02-24T04:15:09.051Z,100294.25
2023-02-24T04:17:44.754Z,100290.53
2023-02-24T04:20:16.539Z,100278.47
2023-02-24T04:22:54.562Z,100268.28
2023-02-24T04:25:25.066Z,100256.69
2023-02-24T04:27:55.752Z,100255.09
2023-02-24T04:30:27.016Z,100242.63
2023-02-24T04:32:54.159Z,100237.56
2023-02-24T04:35:22.956Z,100224.53
2023-02-24T04:37:51.087Z,100227.06
2023-02-24T04:40:22.171Z,100224.56
2023-02-24T04:42:51.848Z,100222.59
2023-02-24T04:45:27.866Z,100212.78
2023-02-24T04:47:56.252Z,100206.03
2023-02-24T04:50:25.660Z,100193.94
2023-02-24T04:53:06.957Z,100191.66
2023-02-24T04:55:40.066Z,100186.34
2023-02-24T04:58:19.211Z,100180.63
2023-02-24T05:00:48.905Z,100175.88
2023-02-24T05:03:17.311Z,100161.66
2023-02-24T05:05:52.014Z,100163.09
2023-02-24T05:08:19.865Z,100151.22
2023-02-24T05:10:47.549Z,100138.34
2023-02-24T05:13:17.681Z,100140.81
2023-02-24T05:15:45.765Z,100130.09
2023-02-24T05:18:14.873Z,100126.47
2023-02-24T05:21:04.747Z,100122.28
2023-02-24T05:23:39.221Z,100116.66
2023-02-24T05:26:11.011Z,100113.50
2023-02-24T05:28:41.135Z,100103.69
2023-02-24T05:31:10.584Z,100110.09
2023-02-24T05:33:38.487Z,100102.81
2023-02-24T05:36:08.643Z,100097.88
2023-02-24T05:38:38.208Z,100081.69
2023-02-24T05:41:16.989Z,100087.81
2023-02-24T05:43:55.476Z,100075.81
2023-02-24T05:46:28.388Z,100071.34
2023-02-24T05:49:00.553Z,100063.50
2023-02-24T05:51:36.460Z,100063.34
2023-02-24T05:54:09.180Z,100049.22
2023-02-24T05:56:38.684Z,100052.28
2023-02-24T05:59:10.825Z,100050.94
2023-02-24T06:01:45.785Z,100035.50
2023-02-24T06:04:20.925Z,100041.91
2023-02-24T06:06:55.161Z,100037.84
2023-02-24T06:09:23.411Z,100033.47
2023-02-24T06:11:50.454Z,100034.91
2023-02-24T06:14:17.243Z,100035.72
2023-02-24T06:16:44.038Z,100032.09
2023-02-24T06:19:12.148Z,100028.81
2023-02-24T06:21:41.371Z,100025.31
2023-02-24T06:24:18.797Z,100022.72
2023-02-24T06:26:46.674Z,100026.47
2023-02-24T06:29:15.012Z,100017.38
2023-02-24T06:31:43.200Z,100008.06
2023-02-24T06:34:11.225Z,100011.00
2023-02-24T06:36:38.123Z,100005.53
2023-02-24T06:39:08.192Z,100003.84
2023-02-24T06:41:37.906Z,99992.28
2023-02-24T06:44:05.239Z,100001.13
2023-02-24T06:46:31.954Z,99983.03
2023-02-24T06:48:58.683Z,99979.31
2023-02-24T06:51:30.070Z,99972.22
2023-02-24T06:53:57.697Z,99965.44
2023-02-24T06:56:24.513Z,99974.88
2023-02-24T06:58:53.120Z,99961.94
2023-02-24T07:01:25.652Z,99966.22
2023-02-24T07:04:26.314Z,99961.03
2023-02-24T07:06:57.260Z,99944.38
2023-02-24T07:09:26.575Z,99955.06
2023-02-24T07:11:56.001Z,99941.63
2023-02-24T07:14:24.895Z,99945.38
2023-02-24T07:16:55.284Z,99933.38
2023-02-24T07:19:25.639Z,99933.72
2023-02-24T07:21:59.888Z,99927.56
2023-02-24T07:24:36.737Z,99918.59
2023-02-24T07:27:06.258Z,99918.34
2023-02-24T07:29:36.353Z,99903.31
2023-02-24T07:32:05.638Z,99912.00
2023-02-24T07:34:33.791Z,99897.69
2023-02-24T07:37:06.602Z,99893.66
2023-02-24T07:39:34.184Z,99897.25
2023-02-24T07:42:00.806Z,99895.72
2023-02-24T07:44:29.353Z,99894.22
2023-02-24T07:46:59.122Z,99886.94
2023-02-24T07:49:27.875Z,99884.75
2023-02-24T07:51:57.774Z,99875.09
2023-02-24T07:54:27.291Z,99865.88
2023-02-24T07:56:57.112Z,99864.31
2023-02-24T07:59:35.193Z,99866.63
2023-02-24T08:02:04.966Z,99856.53
2023-02-24T08:04:32.988Z,99851.06
2023-02-24T08:07:03.628Z,99847.78
2023-02-24T08:09:44.994Z,99849.72
2023-02-24T08:12:22.801Z,99839.34
2023-02-24T08:14:51.825Z,99836.47
2023-02-24T08:17:21.366Z,99820.19
2023-02-24T08:19:50.336Z,99825.41
2023-02-24T08:22:20.353Z,99823.97
2023-02-24T08:24:52.807Z,99820.28
2023-02-24T08:27:25.131Z,99818.53
2023-02-24T08:30:00.618Z,99806.91
2023-02-24T08:32:43.795Z,99789.63
2023-02-24T08:35:16.784Z,99790.16
2023-02-24T08:37:52.041Z,99788.91
2023-02-24T08:40:33.504Z,99776.66
2023-02-24T08:43:25.206Z,99772.00
2023-02-24T08:46:18.443Z,99771.94
2023-02-24T08:48:55.465Z,99763.84
2023-02-24T08:51:29.040Z,99749.50
2023-02-24T08:54:01.299Z,99748.78
2023-02-24T08:56:34.909Z,99746.34
2023-02-24T08:59:13.022Z,99734.94
2023-02-24T09:01:42.207Z,99727.59
2023-02-24T09:04:12.033Z,99724.75
2023-02-24T09:06:46.014Z,99724.47
2023-02-24T09:09:19.097Z,99729.53
2023-02-24T09:11:47.726Z,99719.63
2023-02-24T09:14:26.567Z,99711.56
2023-02-24T09:17:06.525Z,99711.22
2023-02-24T09:19:51.589Z,99702.44
2023-02-24T09:22:57.338Z,99703.34
2023-02-24T09:25:40.437Z,99694.13
2023-02-24T09:28:10.854Z,99693.25
2023-02-24T09:30:51.036Z,99691.81
2023-02-24T09:33:30.199Z,99686.41
2023-02-24T09:36:11.047Z,99681.53
2023-02-24T09:38:58.639Z,99684.53
2023-02-24T09:41:59.555Z,99678.84
2023-02-24T09:44:39.395Z,99674.16
2023-02-24T09:47:57.205Z,99668.91
2023-02-24T09:51:03.048Z,99666.84
2023-02-24T09:53:41.260Z,99655.63
2023-02-24T09:56:21.953Z,99661.38
2023-02-24T09:59:10.214Z,99656.91
2023-02-24T10:01:47.411Z,99660.16
2023-02-24T10:04:21.092Z,99647.38
2023-02-24T10:06:49.652Z,99647.91
2023-02-24T10:09:33.549Z,99646.53
2023-02-24T10:12:17.221Z,99635.00
2023-02-24T10:15:00.305Z,99629.56
2023-02-24T10:17:40.054Z,99624.22
2023-02-24T10:20:39.308Z,99625.00
2023-02-24T10:23:35.099Z,99622.09
2023-02-24T10:26:33.017Z,99618.19
2023-02-24T10:29:09.537Z,99614.03
2023-02-24T10:31:45.999Z,99609.19
2023-02-24T10:34:25.332Z,99601.53
2023-02-24T10:36:52.976Z,99600.25
2023-02-24T10:39:25.591Z,99596.34
2023-02-24T10:41:57.557Z,99588.44
2023-02-24T10:44:36.019Z,99589.06
2023-02-24T10:47:13.096Z,99578.50
2023-02-24T10:49:42.954Z,99578.56
2023-02-24T10:52:33.322Z,99574.56
2023-02-24T10:55:08.649Z,99576.28
2023-02-24T10:57:58.520Z,99562.56
2023-02-24T11:00:50.940Z,99549.88
2023-02-24T11:03:35.815Z,99535.69
2023-02-24T11:06:03.174Z,99534.00
2023-02-24T11:08:44.326Z,99527.28
2023-02-24T11:11:51.343Z,99531.00
2023-02-24T11:14:37.086Z,99525.19
2023-02-24T11:17:16.359Z,99509.09
2023-02-24T11:20:01.386Z,99509.28
2023-02-24T11:22:36.106Z,99507.72
2023-02-24T11:25:13.888Z,99496.91
2023-02-24T11:27:53.563Z,99484.00
2023-02-24T11:31:14.284Z,99471.88
2023-02-24T11:46:08.861Z,99460.84
2023-02-24T11:49:34.585Z,99453.00
2023-02-24T11:52:57.567Z,99440.69
2023-02-24T11:58:55.800Z,99431.50
2023-02-24T12:02:14.712Z,99426.16
2023-02-24T12:06:25.787Z,99417.38
2023-02-24T12:09:13.214Z,99403.53
2023-02-24T12:12:33.224Z,99407.19
2023-02-24T12:20:09.217Z,99388.72
2023-02-24T12:23:16.041Z,99402.72
2023-02-24T12:27:09.847Z,99392.63
2023-02-24T12:29:57.229Z,99390.00
2023-02-24T12:33:33.472Z,99390.25
2023-02-24T12:36:46.234Z,99378.25
2023-02-24T12:43:19.514Z,99361.31
2023-02-24T12:46:59.784Z,99360.13
2023-02-24T12:50:47.248Z,99358.47
2023-02-24T12:54:40.182Z,99348.41
2023-02-24T12:57:50.897Z,99368.59
2023-02-24T13:00:59.934Z,99354.25
2023-02-24T13:03:49.104Z,99352.56
2023-02-24T13:07:19.522Z,99349.88
2023-02-24T13:10:21.704Z,99342.41
2023-02-24T13:13:09.482Z,99320.53
2023-02-24T13:16:05.411Z,99317.53
2023-02-24T13:34:57.735Z,99280.91
2023-02-24T13:38:07.959Z,99272.25
2023-02-24T13:45:01.720Z,99271.63
2023-02-24T13:48:53.644Z,99268.38
2023-02-24T13:52:17.585Z,99263.25
2023-02-24T13:58:48.288Z,99271.03
2023-02-24T14:06:04.523Z,99254.34
2023-02-24T14:09:40.212Z,99243.03
2023-02-24T14:12:54.004Z,99237.63
2023-02-24T14:19:40.761Z,99231.38
2023-02-24T14:26:44.453Z,99219.00
2023-02-24T14:37:19.418Z,99210.06
2023-02-24T14:41:23.498Z,99210.47
2023-02-24T14:55:16.377Z,99182.06
2023-02-24T15:06:27.538Z,99178.53
2023-02-24T15:10:29.610Z,99186.97
2023-02-24T15:14:39.820Z,99187.94
2023-02-24T15:17:18.200Z,99179.53
2023-02-24T15:19:51.129Z,99179.34
2023-02-24T15:22:18.798Z,99167.47
2023-02-24T15:24:45.738Z,99173.84
2023-02-24T15:27:15.413Z,99169.50
2023-02-24T15:29:44.188Z,99172.19
2023-02-24T15:32:21.205Z,99159.09
2023-02-24T15:34:48.174Z,99169.41
2023-02-24T15:37:20.631Z,99164.59
2023-02-24T15:39:49.555Z,99166.97
2023-02-24T15:42:16.074Z,99149.97
2023-02-24T15:44:57.063Z,99148.56
2023-02-24T15:47:27.409Z,99148.22
2023-02-24T15:49:54.513Z,99146.44
2023-02-24T15:52:27.321Z,99137.88
2023-02-24T15:54:56.582Z,99145.13
2023-02-24T15:57:23.519Z,99143.75
2023-02-24T15:59:50.179Z,99133.88
2023-02-24T16:02:19.878Z,99136.50
2023-02-24T16:04:48.231Z,99134.53
2023-02-24T16:07:24.847Z,99126.88
2023-02-24T16:09:54.340Z,99125.25
2023-02-24T16:12:29.287Z,99140.09
2023-02-24T16:15:02.147Z,99126.72
2023-02-24T16:17:34.966Z,99130.63
2023-02-24T16:20:02.664Z,99130.63
2023-02-24T16:22:29.685Z,99121.31
2023-02-24T16:24:56.372Z,99127.75
2023-02-24T16:27:25.993Z,99120.94
2023-02-24T16:29:53.218Z,99123.94
2023-02-24T16:32:23.791Z,99125.31
2023-02-24T16:34:50.626Z,99122.91
2023-02-24T16:37:20.254Z,99127.53
2023-02-24T16:39:49.476Z,99126.03
2023-02-24T16:42:17.534Z,99122.63
2023-02-24T16:44:44.644Z,99127.47
2023-02-24T16:47:19.069Z,99121.50
2023-02-24T16:49:46.051Z,99123.75
2023-02-24T16:52:13.725Z,99129.16
2023-02-24T16:54:40.719Z,99126.91
2023-02-24T16:57:07.382Z,99126.13
2023-02-24T16:59:34.003Z,99135.81
2023-02-24T17:02:02.200Z,99135.63
2023-02-24T17:04:29.461Z,99132.31
2023-02-24T17:06:56.204Z,99135.94
2023-02-24T17:09:22.865Z,99135.19
2023-02-24T17:11:49.642Z,99143.34
2023-02-24T17:14:19.294Z,99148.22
2023-02-24T17:16:46.366Z,99137.50
2023-02-24T17:19:14.131Z,99143.38
2023-02-24T17:21:43.289Z,99134.34
2023-02-24T17:24:18.632Z,99136.31
2023-02-24T17:26:45.546Z,99144.97
2023-02-24T17:29:13.869Z,99134.72
2023-02-24T17:31:42.235Z,99144.13
2023-02-24T17:34:09.410Z,99141.41
2023-02-24T17:36:37.248Z,99141.78
2023-02-24T17:39:03.968Z,99146.53
2023-02-24T17:41:30.703Z,99151.28
2023-02-24T17:43:57.432Z,99156.19
2023-02-24T17:46:24.623Z,99145.31
2023-02-24T17:48:51.673Z,99140.97
2023-02-24T17:51:19.945Z,99136.31
2023-02-24T17:53:46.830Z,99144.72
2023-02-24T17:56:13.667Z,99142.59
2023-02-24T17:58:40.543Z,99148.47
2023-02-24T18:01:07.902Z,99145.19
2023-02-24T18:03:36.421Z,99141.69
2023-02-24T18:06:06.604Z,99146.56
2023-02-24T18:08:34.948Z,99149.56
2023-02-24T18:11:02.382Z,99152.91
2023-02-24T18:13:30.170Z,99143.94
2023-02-24T18:15:57.019Z,99149.78
2023-02-24T18:18:25.215Z,99145.97
2023-02-24T18:20:52.409Z,99142.09
2023-02-24T18:23:20.514Z,99143.88
2023-02-24T18:25:47.168Z,99142.28
2023-02-24T18:28:13.882Z,99152.13
2023-02-24T18:30:40.672Z,99150.91
2023-02-24T18:33:07.613Z,99147.84
2023-02-24T18:35:34.464Z,99147.22
2023-02-24T18:38:01.198Z,99150.38
2023-02-24T18:40:29.568Z,99155.19
2023-02-24T18:42:56.728Z,99150.81
2023-02-24T18:45:24.166Z,99160.28
2023-02-24T18:47:52.064Z,99157.16
2023-02-24T18:50:20.638Z,99157.16
2023-02-24T18:52:47.324Z,99157.72
2023-02-24T18:55:13.966Z,99152.53
2023-02-24T18:57:41.171Z,99155.03
2023-02-24T19:00:12.076Z,99156.22
2023-02-24T19:02:40.450Z,99153.72
2023-02-24T19:05:07.829Z,99154.34
2023-02-24T19:07:36.535Z,99155.75
2023-02-24T19:10:04.914Z,99155.25
2023-02-24T19:12:31.556Z,99158.00
2023-02-24T19:14:58.190Z,99149.31
2023-02-24T19:17:24.849Z,99156.41
2023-02-24T19:19:51.498Z,99149.59
2023-02-24T19:22:18.120Z,99155.81
2023-02-24T19:24:44.861Z,99155.66
2023-02-24T19:27:11.479Z,99158.44
2023-02-24T19:29:38.179Z,99152.50
2023-02-24T19:32:05.058Z,99137.13
2023-02-24T19:34:31.777Z,99145.69
2023-02-24T19:36:58.501Z,99140.50
2023-02-24T19:39:25.193Z,99150.41
2023-02-24T19:41:53.199Z,99152.78
2023-02-24T19:44:19.864Z,99150.00
2023-02-24T19:46:46.586Z,99147.41
2023-02-24T19:49:13.473Z,99148.16
2023-02-24T19:51:40.096Z,99148.97
2023-02-24T19:54:07.014Z,99139.06
2023-02-24T19:56:36.388Z,99145.94
2023-02-24T19:59:05.523Z,99153.59
2023-02-24T20:01:32.513Z,99146.50
2023-02-24T20:04:02.054Z,99151.28
2023-02-24T20:06:40.419Z,99150.50
2023-02-24T20:09:09.758Z,99158.53
2023-02-24T20:11:38.193Z,99160.69
2023-02-24T20:14:07.552Z,99148.72
2023-02-24T20:16:36.855Z,99152.47
2023-02-24T20:19:06.034Z,99155.09
2023-02-24T20:21:33.622Z,99160.94
2023-02-24T20:24:04.300Z,99161.41
2023-02-24T20:26:31.487Z,99163.81
2023-02-24T20:28:59.830Z,99165.97
2023-02-24T20:31:27.054Z,99162.06
2023-02-24T20:33:53.754Z,99166.56
2023-02-24T20:36:23.574Z,99170.53
2023-02-24T20:38:51.194Z,99172.88
2023-02-24T20:41:19.882Z,99172.91
2023-02-24T20:43:46.585Z,99173.59
2023-02-24T20:46:14.867Z,99166.56
2023-02-24T20:48:42.023Z,99165.38
2023-02-24T20:51:09.587Z,99162.88
2023-02-24T20:53:54.685Z,99166.81
2023-02-24T20:56:24.029Z,99172.28
2023-02-24T20:59:02.609Z,99177.44
2023-02-24T21:01:30.911Z,99176.09
2023-02-24T21:03:58.277Z,99181.19
2023-02-24T21:06:28.213Z,99186.19
2023-02-24T21:08:55.553Z,99176.84
2023-02-24T21:11:23.009Z,99176.28
2023-02-24T21:13:51.290Z,99185.66
2023-02-24T21:16:19.330Z,99188.47
2023-02-24T21:18:48.364Z,99190.50
2023-02-24T21:21:16.290Z,99199.47
2023-02-24T21:23:44.051Z,99196.75
2023-02-24T21:26:11.275Z,99192.84
2023-02-24T21:28:40.295Z,99198.00
2023-02-24T21:31:09.673Z,99202.31
2023-02-24T21:33:36.988Z,99209.97
2023-02-24T21:36:10.775Z,99200.84
2023-02-24T21:38:37.887Z,99208.78
2023-02-24T21:41:07.448Z,99208.94
2023-02-24T21:43:34.692Z,99210.84
2023-02-24T21:46:02.668Z,99215.53
2023-02-24T21:48:29.573Z,99219.28
2023-02-24T21:51:05.045Z,99227.50
2023-02-24T21:53:35.500Z,99221.88
2023-02-24T21:56:17.681Z,99231.47
2023-02-24T21:59:01.360Z,99224.41
2023-02-24T22:01:33.961Z,99232.91
2023-02-24T22:04:06.964Z,99233.56
2023-02-24T22:06:36.218Z,99235.56
2023-02-24T22:09:05.219Z,99238.56
2023-02-24T22:11:35.296Z,99245.06
2023-02-24T22:14:02.036Z,99244.34
2023-02-24T22:16:29.219Z,99255.56
2023-02-24T22:18:56.335Z,99257.72
2023-02-24T22:21:26.405Z,99262.00
2023-02-24T22:23:56.045Z,99253.69
2023-02-24T22:26:24.188Z,99268.56
2023-02-24T22:28:51.534Z,99264.16
2023-02-24T22:31:21.651Z,99260.09
2023-02-24T22:33:48.928Z,99266.28
2023-02-24T22:36:22.073Z,99267.06
2023-02-24T22:38:49.004Z,99268.03
2023-02-24T22:41:18.168Z,99263.69
2023-02-24T22:43:45.183Z,99278.50
2023-02-24T22:46:22.064Z,99266.66
2023-02-24T22:48:50.330Z,99272.19
2023-02-24T22:51:18.377Z,99277.78
2023-02-24T22:53:47.469Z,99280.38
2023-02-24T22:56:16.565Z,99279.34
2023-02-24T22:58:43.537Z,99280.44
2023-02-24T23:01:16.564Z,99282.13
2023-02-24T23:03:43.637Z,99283.09
2023-02-24T23:06:14.357Z,99282.84
2023-02-24T23:08:43.159Z,99284.41
2023-02-24T23:11:13.329Z,99290.19
2023-02-24T23:13:41.464Z,99296.31
2023-02-24T23:16:11.352Z,99298.53
2023-02-24T23:18:38.117Z,99297.78
2023-02-24T23:21:08.484Z,99295.22
2023-02-24T23:23:36.745Z,99300.59
2023-02-24T23:26:04.703Z,99300.00
2023-02-24T23:28:31.468Z,99312.03
2023-02-24T23:30:58.232Z,99296.09
2023-02-24T23:33:25.064Z,99300.53
2023-02-24T23:35:51.722Z,99306.78
2023-02-24T23:38:18.505Z,99318.66
2023-02-24T23:40:50.657Z,99319.56
2023-02-24T23:43:18.487Z,99321.00
2023-02-24T23:45:45.536Z,99318.84
2023-02-24T23:48:14.367Z,99326.13
2023-02-24T23:50:42.645Z,99334.28
2023-02-24T23:53:10.109Z,99338.22
2023-02-24T23:55:40.895Z,99329.59
2023-02-24T23:58:08.351Z,99340.81
